Time;durP1;ratioP1;P1;durP2;ratioP2;P2;SDS_P1;SDS_P2;PMS_P1;PMS_P2;Temp;Humidity;BMP_temperature;BMP_pressure;BME280_temperature;BME280_humidity;BME280_pressure;Samples;Min_cycle;Max_cycle;Signal;HPM_P1;HPM_P2
2022/06/06 00:02:16;;;;;;;;;;;;;;;12.53;69.91;99670.09;5029349;28;19955;-73
2022/06/06 00:04:42;;;;;;;;;;;;;;;12.50;70.08;99669.84;5046097;28;20023;-72
2022/06/06 00:07:08;;;;;;;;;;;;;;;12.51;70.02;99674.22;5046526;28;19939;-71
2022/06/06 00:09:34;;;;;;;;;;;;;;;12.50;69.93;99667.09;5046233;28;19936;-73
2022/06/06 00:12:00;;;;;;;;;;;;;;;12.51;69.71;99663.25;5042232;28;19928;-73
2022/06/06 00:14:28;;;;;;;;;;;;;;;12.52;69.65;99664.88;5028569;28;19935;-73
2022/06/06 00:16:54;;;;;;;;;;;;;;;12.50;69.65;99667.94;5050718;28;20035;-72
2022/06/06 00:19:19;;;;;;;;;;;;;;;12.47;69.88;99671.22;5042698;28;19928;-73
2022/06/06 00:21:46;;;;;;;;;;;;;;;12.43;70.08;99661.97;5046364;28;19935;-74
2022/06/06 00:24:12;;;;;;;;;;;;;;;12.38;70.38;99662.81;5061088;28;19929;-74
2022/06/06 00:26:38;;;;;;;;;;;;;;;12.33;70.54;99662.88;5044217;28;19994;-74
2022/06/06 00:29:04;;;;;;;;;;;;;;;12.31;70.90;99660.44;5046550;28;19933;-73
2022/06/06 00:37:01;;;;;;;;;;;;;;;12.32;70.66;99656.56;5049482;28;19929;-74
2022/06/06 00:39:27;;;;;;;;;;;;;;;12.32;70.75;99655.78;5067583;28;19936;-72
2022/06/06 00:41:54;;;;;;;;;;;;;;;12.30;70.80;99661.53;5047313;28;20465;-73
2022/06/06 00:44:21;;;;;;;;;;;;;;;12.30;70.69;99658.00;5031910;28;19936;-73
2022/06/06 00:46:51;;;;;;;;;;;;;;;12.32;70.73;99666.75;5065228;28;20023;-73
2022/06/06 00:49:20;;;;;;;;;;;;;;;12.34;70.70;99670.00;5047221;28;20024;-73
2022/06/06 00:51:45;;;;;;;;;;;;;;;12.33;70.72;99669.22;5067257;28;19963;-73
2022/06/06 00:54:11;;;;;;;;;;;;;;;12.33;70.93;99668.38;5031115;28;20010;-74
2022/06/06 00:56:39;;;;;;;;;;;;;;;12.36;70.94;99666.97;5013464;28;20026;-74
2022/06/06 00:59:09;;;;;;;;;;;;;;;12.30;70.88;99668.97;5046552;28;19929;-73
2022/06/06 01:01:35;;;;;;;;;;;;;;;12.26;71.09;99668.72;5045821;28;20223;-73
2022/06/06 01:04:04;;;;;;;;;;;;;;;12.26;71.13;99665.16;5064887;28;19928;-73
2022/06/06 01:06:33;;;;;;;;;;;;;;;12.22;71.28;99667.66;5049325;28;19935;-73
2022/06/06 01:08:59;;;;;;;;;;;;;;;12.24;71.29;99661.88;5047279;28;19932;-72
2022/06/06 01:11:25;;;;;;;;;;;;;;;12.22;71.31;99667.66;5049102;28;19928;-74
2022/06/06 01:13:51;;;;;;;;;;;;;;;12.19;71.85;99671.00;5050037;28;19929;-72
2022/06/06 01:16:29;;;;;;;;;;;;;;;12.17;71.84;99668.53;5065383;28;19935;-74
2022/06/06 01:19:02;;;;;;;;;;;;;;;12.16;71.83;99664.16;5067839;28;19982;-72
2022/06/06 01:21:51;;;;;;;;;;;;;;;12.20;71.93;99670.69;5015484;28;19929;-71
2022/06/06 01:24:29;;;;;;;;;;;;;;;12.28;71.59;99668.44;5015306;28;19935;-73
2022/06/06 01:27:02;;;;;;;;;;;;;;;12.31;71.24;99659.63;5067200;28;20407;-73
2022/06/06 01:29:34;;;;;;;;;;;;;;;12.34;71.21;99670.84;5065635;28;19932;-73
2022/06/06 01:32:02;;;;;;;;;;;;;;;12.38;71.32;99673.00;5049387;28;19933;-73
2022/06/06 01:34:29;;;;;;;;;;;;;;;12.39;71.24;99664.47;5048394;28;19935;-74
2022/06/06 01:36:56;;;;;;;;;;;;;;;12.41;71.17;99675.16;5046516;28;20039;-72
2022/06/06 01:39:23;;;;;;;;;;;;;;;12.42;71.20;99674.88;5028758;28;20035;-73
2022/06/06 01:41:52;;;;;;;;;;;;;;;12.42;71.37;99671.28;5027214;28;20028;-74
2022/06/06 01:44:25;;;;;;;;;;;;;;;12.44;71.47;99669.06;5028275;28;19929;-72
2022/06/06 01:46:53;;;;;;;;;;;;;;;12.46;71.70;99673.16;5058753;28;19935;-72
2022/06/06 01:49:19;;;;;;;;;;;;;;;12.43;72.04;99675.66;5046951;28;20063;-72
2022/06/06 01:51:56;;;;;;;;;;;;;;;12.41;72.38;99669.66;5067366;28;19935;-72
2022/06/06 01:54:22;;;;;;;;;;;;;;;12.42;72.36;99676.78;5030542;28;19990;-73
2022/06/06 01:56:48;;;;;;;;;;;;;;;12.42;72.55;99674.03;5047939;28;19933;-74
2022/06/06 01:59:14;;;;;;;;;;;;;;;12.42;72.42;99672.13;5014870;28;20318;-73
2022/06/06 02:01:39;;;;;;;;;;;;;;;12.45;72.44;99665.22;5048113;28;19944;-72
2022/06/06 02:04:07;;;;;;;;;;;;;;;12.48;72.40;99678.34;5065448;28;20314;-73
2022/06/06 02:06:33;;;;;;;;;;;;;;;12.53;72.29;99670.09;5043979;28;19974;-73
2022/06/06 02:08:58;;;;;;;;;;;;;;;12.59;71.84;99668.09;5062021;28;19929;-73
2022/06/06 02:11:24;;;;;;;;;;;;;;;12.64;71.97;99670.78;5030252;28;20252;-74
2022/06/06 02:13:50;;;;;;;;;;;;;;;12.66;72.11;99670.50;5030380;28;19929;-74
2022/06/06 02:16:16;;;;;;;;;;;;;;;12.71;71.81;99671.25;5030001;28;19954;-73
2022/06/06 02:18:42;;;;;;;;;;;;;;;12.77;71.26;99672.00;5063549;28;19989;-72
2022/06/06 02:21:09;;;;;;;;;;;;;;;12.80;71.08;99668.69;5063563;28;20287;-73
2022/06/06 02:23:35;;;;;;;;;;;;;;;12.85;70.92;99665.03;5062889;28;19936;-72
2022/06/06 02:26:01;;;;;;;;;;;;;;;12.88;70.70;99667.22;5062281;28;20416;-73
2022/06/06 02:28:27;;;;;;;;;;;;;;;12.91;71.09;99669.38;5026489;28;19928;-73
2022/06/06 02:30:52;;;;;;;;;;;;;;;12.94;70.73;99663.28;5063448;28;19928;-77
2022/06/06 02:33:18;;;;;;;;;;;;;;;12.94;70.84;99668.78;5048064;28;19928;-77
2022/06/06 02:35:44;;;;;;;;;;;;;;;12.97;70.76;99668.19;5034275;28;19932;-77
2022/06/06 02:38:13;;;;;;;;;;;;;;;13.03;70.54;99677.19;5083304;28;20036;-72
2022/06/06 02:40:41;;;;;;;;;;;;;;;13.07;70.58;99678.22;5061227;28;19969;-74
2022/06/06 02:43:07;;;;;;;;;;;;;;;13.12;70.26;99672.69;5044192;28;19928;-73
2022/06/06 02:45:33;;;;;;;;;;;;;;;13.17;70.08;99680.00;5063340;28;19936;-73
2022/06/06 02:47:59;;;;;;;;;;;;;;;13.22;70.09;99673.63;5061788;28;20319;-72
2022/06/06 02:50:26;;;;;;;;;;;;;;;13.11;70.08;99664.72;5049080;28;20165;-74
2022/06/06 02:52:52;;;;;;;;;;;;;;;13.16;70.09;99670.13;5050076;28;19935;-73
2022/06/06 02:55:19;;;;;;;;;;;;;;;13.30;69.99;99682.03;5032750;28;19930;-73
2022/06/06 02:57:46;;;;;;;;;;;;;;;13.34;70.00;99682.25;5065174;28;19929;-77
2022/06/06 03:00:14;;;;;;;;;;;;;;;13.38;70.05;99683.28;5047379;28;19934;-77
2022/06/06 03:02:40;;;;;;;;;;;;;;;13.44;69.84;99687.63;5049738;28;20028;-77
2022/06/06 03:05:06;;;;;;;;;;;;;;;13.49;69.75;99692.22;5032624;28;19967;-76
2022/06/06 03:07:37;;;;;;;;;;;;;;;13.55;69.68;99696.53;5067429;28;19928;-77
2022/06/06 03:10:06;;;;;;;;;;;;;;;13.58;69.50;99701.44;5033245;28;19928;-78
2022/06/06 03:12:44;;;;;;;;;;;;;;;13.63;69.18;99695.06;5048467;28;20077;-76
2022/06/06 03:15:17;;;;;;;;;;;;;;;13.67;68.75;99698.84;5047890;28;20318;-77
2022/06/06 03:20:47;;;;;;;;;;;;;;;13.74;68.35;99696.53;5031514;28;19953;-77
2022/06/06 03:23:24;;;;;;;;;;;;;;;13.77;68.06;99700.59;5046465;28;19936;-76
2022/06/06 03:25:56;;;;;;;;;;;;;;;13.84;67.83;99706.56;5047793;28;19929;-76
2022/06/06 03:28:27;;;;;;;;;;;;;;;13.92;67.70;99704.22;5065982;28;19929;-77
2022/06/06 03:31:02;;;;;;;;;;;;;;;14.00;67.47;99700.81;5066613;28;19938;-77
2022/06/06 03:33:35;;;;;;;;;;;;;;;14.07;67.26;99703.16;5035037;28;19928;-78
2022/06/06 03:36:05;;;;;;;;;;;;;;;14.11;67.19;99696.75;5070395;28;19929;-77
2022/06/06 03:38:34;;;;;;;;;;;;;;;14.17;66.85;99702.97;5069513;28;20027;-77
2022/06/06 03:41:04;;;;;;;;;;;;;;;14.21;66.71;99700.44;5065179;28;19978;-78
2022/06/06 03:43:37;;;;;;;;;;;;;;;14.26;66.69;99697.59;5050014;28;20425;-77
2022/06/06 03:46:09;;;;;;;;;;;;;;;14.28;66.66;99700.88;5050424;28;19963;-77
2022/06/06 03:48:40;;;;;;;;;;;;;;;14.33;66.49;99709.03;5046740;28;19928;-76
2022/06/06 03:51:13;;;;;;;;;;;;;;;14.39;66.72;99712.53;5046427;28;19932;-78
2022/06/06 03:53:43;;;;;;;;;;;;;;;14.45;66.41;99708.53;5062924;28;20010;-78
2022/06/06 03:56:16;;;;;;;;;;;;;;;14.49;66.13;99706.00;5066830;28;19981;-78
2022/06/06 03:58:44;;;;;;;;;;;;;;;14.55;65.63;99707.53;5032629;28;19935;-77
2022/06/06 04:01:11;;;;;;;;;;;;;;;14.59;65.66;99706.63;5046251;28;19937;-77
2022/06/06 04:03:37;;;;;;;;;;;;;;;14.65;64.94;99701.84;5048497;28;20423;-77
2022/06/06 04:06:03;;;;;;;;;;;;;;;14.69;64.95;99699.31;5065096;28;19928;-77
2022/06/06 04:08:32;;;;;;;;;;;;;;;14.74;64.70;99702.78;5065644;28;19977;-77
2022/06/06 04:11:16;;;;;;;;;;;;;;;14.83;64.75;99702.91;5047601;28;20313;-77
2022/06/06 04:13:50;;;;;;;;;;;;;;;14.88;64.44;99694.53;5046878;28;19935;-77
2022/06/06 04:16:24;;;;;;;;;;;;;;;14.91;64.08;99695.88;5064645;28;19928;-78
2022/06/06 04:18:57;;;;;;;;;;;;;;;14.95;63.90;99702.41;5032516;28;19978;-77
2022/06/06 04:21:30;;;;;;;;;;;;;;;14.99;63.78;99699.84;5048565;28;19928;-78
2022/06/06 04:24:14;;;;;;;;;;;;;;;15.05;63.21;99704.13;5047263;28;19934;-77
2022/06/06 04:26:42;;;;;;;;;;;;;;;15.09;62.94;99702.38;5062002;28;19933;-78
2022/06/06 04:29:15;;;;;;;;;;;;;;;15.11;62.65;99700.13;5047941;28;19928;-77
2022/06/06 04:31:44;;;;;;;;;;;;;;;15.15;62.47;99703.09;5067245;28;20412;-77
2022/06/06 04:34:14;;;;;;;;;;;;;;;15.19;62.19;99704.09;5067561;28;20027;-77
2022/06/06 04:36:44;;;;;;;;;;;;;;;15.22;62.13;99717.28;5031193;28;20026;-78
2022/06/06 04:39:14;;;;;;;;;;;;;;;15.25;61.50;99716.66;5066620;28;19966;-78
2022/06/06 04:41:43;;;;;;;;;;;;;;;15.31;61.57;99718.16;5054932;28;19932;-77
2022/06/06 04:44:14;;;;;;;;;;;;;;;15.38;61.03;99725.19;5053928;28;19928;-77
2022/06/06 04:46:44;;;;;;;;;;;;;;;15.40;60.95;99725.69;5066198;28;19929;-77
2022/06/06 04:49:11;;;;;;;;;;;;;;;15.45;60.68;99728.34;5014545;28;19928;-77
2022/06/06 04:51:38;;;;;;;;;;;;;;;15.48;60.46;99729.66;5048026;28;19929;-77
2022/06/06 04:54:04;;;;;;;;;;;;;;;15.49;60.03;99726.59;5012682;28;20002;-77
2022/06/06 04:56:32;;;;;;;;;;;;;;;15.52;60.00;99731.47;5046676;28;20415;-76
2022/06/06 04:59:00;;;;;;;;;;;;;;;15.56;59.94;99734.44;5028611;28;19928;-77
2022/06/06 05:01:28;;;;;;;;;;;;;;;15.62;59.71;99738.72;5032381;28;20403;-77
2022/06/06 05:03:54;;;;;;;;;;;;;;;15.67;59.68;99741.34;5050070;28;20347;-78
2022/06/06 05:06:32;;;;;;;;;;;;;;;15.74;59.78;99741.72;5048068;28;19959;-78
2022/06/06 05:09:07;;;;;;;;;;;;;;;15.82;59.24;99744.88;5063759;28;20036;-77
2022/06/06 05:11:39;;;;;;;;;;;;;;;15.87;58.84;99742.81;5063514;28;19928;-78
2022/06/06 05:14:14;;;;;;;;;;;;;;;15.91;58.72;99736.72;5029452;28;20039;-77
2022/06/06 05:16:54;;;;;;;;;;;;;;;15.90;57.81;99746.91;5048775;28;19935;-78
2022/06/06 05:19:30;;;;;;;;;;;;;;;15.92;58.14;99750.19;5035418;28;19932;-74
2022/06/06 05:22:02;;;;;;;;;;;;;;;15.94;57.68;99744.34;5065074;28;20030;-73
2022/06/06 05:24:38;;;;;;;;;;;;;;;15.95;57.29;99748.72;5063556;28;19932;-73
2022/06/06 05:27:13;;;;;;;;;;;;;;;15.96;57.46;99744.84;5027381;28;20373;-73
2022/06/06 05:29:50;;;;;;;;;;;;;;;16.04;57.50;99752.38;5063766;28;20026;-73
2022/06/06 05:32:24;;;;;;;;;;;;;;;16.10;57.14;99759.41;5062328;28;19928;-73
2022/06/06 05:34:53;;;;;;;;;;;;;;;16.11;57.05;99752.75;5063275;28;19954;-73
2022/06/06 05:37:27;;;;;;;;;;;;;;;16.13;57.09;99758.75;5061932;28;19967;-73
2022/06/06 05:40:06;;;;;;;;;;;;;;;16.18;56.46;99757.81;5030245;28;19937;-73
2022/06/06 05:42:44;;;;;;;;;;;;;;;16.21;56.13;99757.19;5032635;28;20023;-74
2022/06/06 05:45:15;;;;;;;;;;;;;;;16.26;56.61;99757.09;5032553;28;19936;-74
2022/06/06 05:47:48;;;;;;;;;;;;;;;16.38;56.28;99758.44;4681338;28;9999752;-78
2022/06/06 05:50:24;;;;;;;;;;;;;;;16.46;56.20;99760.44;5052235;28;20354;-77
2022/06/06 05:53:00;;;;;;;;;;;;;;;16.50;56.18;99761.44;5063206;28;20029;-78
2022/06/06 05:55:36;;;;;;;;;;;;;;;16.51;55.41;99763.06;5044260;28;19928;-77
2022/06/06 05:58:17;;;;;;;;;;;;;;;16.56;55.84;99771.22;5060664;28;19928;-78
2022/06/06 06:00:51;;;;;;;;;;;;;;;16.64;55.24;99758.63;5043468;28;19997;-78
2022/06/06 06:03:50;;;;;;;;;;;;;;;16.76;55.26;99759.94;5066104;28;19928;-78
2022/06/06 06:06:22;;;;;;;;;;;;;;;16.80;54.66;99759.00;5065313;28;19928;-77
2022/06/06 06:09:03;;;;;;;;;;;;;;;16.82;54.17;99764.22;5066262;28;20023;-78
2022/06/06 06:11:39;;;;;;;;;;;;;;;16.85;53.83;99758.06;5063639;28;20913;-76
2022/06/06 06:14:11;;;;;;;;;;;;;;;16.90;54.07;99760.66;5072603;28;19950;-76
2022/06/06 06:16:41;;;;;;;;;;;;;;;16.95;53.47;99756.94;5021149;28;20557;-73
2022/06/06 06:19:08;;;;;;;;;;;;;;;17.03;53.22;99752.63;5021107;28;20430;-73
2022/06/06 06:21:37;;;;;;;;;;;;;;;17.22;53.30;99758.69;5063463;28;19935;-74
2022/06/06 06:24:06;;;;;;;;;;;;;;;17.52;52.58;99749.81;5050530;28;20040;-73
2022/06/06 06:26:32;;;;;;;;;;;;;;;17.77;51.29;99750.16;5049515;28;19928;-74
2022/06/06 06:29:01;;;;;;;;;;;;;;;18.13;50.93;99746.28;5047264;28;20429;-75
2022/06/06 06:31:34;;;;;;;;;;;;;;;18.45;49.87;99746.06;5048671;28;19936;-75
2022/06/06 06:34:15;;;;;;;;;;;;;;;18.68;49.36;99746.66;5042944;28;19929;-80
2022/06/06 06:36:45;;;;;;;;;;;;;;;18.81;48.65;99740.09;5037342;28;19929;-80
2022/06/06 06:39:38;;;;;;;;;;;;;;;18.90;47.76;99750.31;5033022;28;19936;-80
2022/06/06 06:42:16;;;;;;;;;;;;;;;18.68;48.61;99735.56;5039883;28;19929;-80
2022/06/06 06:44:46;;;;;;;;;;;;;;;18.88;47.88;99735.97;5019325;28;19978;-75
2022/06/06 06:47:15;;;;;;;;;;;;;;;19.17;47.47;99726.91;5038557;28;19929;-74
2022/06/06 06:49:42;;;;;;;;;;;;;;;19.37;47.17;99739.19;5044789;28;20588;-80
2022/06/06 06:52:18;;;;;;;;;;;;;;;19.33;47.02;99732.66;5044870;28;19929;-79
2022/06/06 06:55:02;;;;;;;;;;;;;;;19.22;47.02;99739.78;5034100;28;19936;-74
2022/06/06 06:57:37;;;;;;;;;;;;;;;19.58;46.03;99734.78;5036403;28;20103;-74
2022/06/06 07:00:10;;;;;;;;;;;;;;;19.91;45.21;99734.06;5048291;28;19929;-79
2022/06/06 07:08:34;;;;;;;;;;;;;;;19.58;44.38;99737.56;5043708;28;19936;-74
2022/06/06 07:11:05;;;;;;;;;;;;;;;19.62;44.47;99736.56;5029485;28;19956;-79
2022/06/06 07:13:38;;;;;;;;;;;;;;;20.08;44.24;99738.66;5025235;28;20038;-79
2022/06/06 07:16:08;;;;;;;;;;;;;;;20.47;43.05;99736.47;5005094;28;20359;-80
2022/06/06 07:18:36;;;;;;;;;;;;;;;20.80;42.57;99737.56;5021999;28;19929;-80
2022/06/06 07:21:05;;;;;;;;;;;;;;;21.25;41.92;99738.66;5040096;28;19929;-80
2022/06/06 07:23:35;;;;;;;;;;;;;;;21.19;41.38;99729.72;5061300;28;19936;-80
2022/06/06 07:26:03;;;;;;;;;;;;;;;20.52;42.62;99738.19;5042922;28;19929;-75
2022/06/06 07:28:29;;;;;;;;;;;;;;;20.02;44.08;99740.81;5044860;28;19929;-75
2022/06/06 07:31:01;;;;;;;;;;;;;;;19.62;44.47;99735.75;5043832;28;19935;-75
2022/06/06 07:33:45;;;;;;;;;;;;;;;19.26;45.00;99735.19;5043339;28;19939;-73
2022/06/06 07:36:16;;;;;;;;;;;;;;;19.18;45.05;99739.63;5035039;28;20390;-77
2022/06/06 07:38:51;;;;;;;;;;;;;;;19.26;45.01;99727.66;5033985;28;19928;-80
2022/06/06 07:41:23;;;;;;;;;;;;;;;19.33;45.23;99732.66;5027429;28;19936;-80
2022/06/06 07:44:02;;;;;;;;;;;;;;;19.41;44.82;99745.69;5044824;28;19929;-79
2022/06/06 07:46:38;;;;;;;;;;;;;;;19.52;44.32;99737.78;5037232;28;19929;-73
2022/06/06 07:49:05;;;;;;;;;;;;;;;19.73;43.92;99728.63;5045618;28;20415;-73
2022/06/06 07:51:36;;;;;;;;;;;;;;;19.52;44.18;99735.00;5044753;28;19928;-73
2022/06/06 07:54:10;;;;;;;;;;;;;;;19.27;44.81;99732.03;5043798;28;19983;-73
2022/06/06 07:56:42;;;;;;;;;;;;;;;19.12;44.86;99732.63;5024608;28;20027;-73
2022/06/06 07:59:12;;;;;;;;;;;;;;;19.01;45.16;99732.19;5039619;28;19929;-73
2022/06/06 08:01:46;;;;;;;;;;;;;;;18.89;45.57;99730.13;5038490;28;19929;-74
2022/06/06 08:04:19;;;;;;;;;;;;;;;18.84;46.31;99739.41;5043701;28;19951;-73
2022/06/06 08:06:49;;;;;;;;;;;;;;;19.03;46.01;99735.44;5043812;28;20027;-73
2022/06/06 08:09:30;;;;;;;;;;;;;;;19.18;45.98;99736.03;5034239;28;19982;-79
2022/06/06 08:12:03;;;;;;;;;;;;;;;19.24;45.48;99720.84;5035278;28;19928;-79
2022/06/06 08:14:38;;;;;;;;;;;;;;;19.25;45.56;99730.78;5044656;28;19951;-73
2022/06/06 08:17:09;;;;;;;;;;;;;;;19.27;45.86;99722.94;4691956;28;9999906;-73
2022/06/06 08:19:41;;;;;;;;;;;;;;;19.25;45.40;99717.72;5052340;28;19940;-73
2022/06/06 08:22:09;;;;;;;;;;;;;;;19.20;45.75;99719.88;5039447;28;19936;-73
2022/06/06 08:24:38;;;;;;;;;;;;;;;19.16;45.71;99718.91;5037417;28;20033;-73
2022/06/06 08:27:06;;;;;;;;;;;;;;;19.10;45.76;99715.53;5023214;28;19929;-79
2022/06/06 08:29:34;;;;;;;;;;;;;;;19.17;46.05;99718.59;5023451;28;19929;-72
2022/06/06 08:31:59;;;;;;;;;;;;;;;19.36;45.66;99717.34;5031936;28;20415;-79
2022/06/06 08:34:25;;;;;;;;;;;;;;;19.59;44.49;99714.22;5032986;28;19929;-73
2022/06/06 08:37:04;;;;;;;;;;;;;;;20.08;43.37;99699.81;5033679;28;20446;-73
2022/06/06 08:39:37;;;;;;;;;;;;;;;21.41;41.45;99718.47;5037172;28;19928;-74
2022/06/06 08:42:19;;;;;;;;;;;;;;;22.62;38.62;99713.13;5037169;28;20026;-74
2022/06/06 08:44:52;;;;;;;;;;;;;;;23.85;35.31;99715.94;5034232;28;19936;-74
2022/06/06 08:47:27;;;;;;;;;;;;;;;24.45;34.50;99713.94;5051686;28;20035;-74
2022/06/06 08:53:13;;;;;;;;;;;;;;;25.30;32.28;99707.34;5050962;28;19956;-79
2022/06/06 08:55:49;;;;;;;;;;;;;;;25.16;32.65;99701.53;5023595;28;20275;-79
2022/06/06 08:58:36;;;;;;;;;;;;;;;25.19;33.07;99698.75;5007055;28;20426;-79
2022/06/06 09:01:13;;;;;;;;;;;;;;;23.75;34.90;99703.38;5012365;28;19928;-74
2022/06/06 09:03:58;;;;;;;;;;;;;;;23.78;35.26;99696.28;5037051;28;20386;-74
2022/06/06 09:06:43;;;;;;;;;;;;;;;24.61;33.87;99697.84;5052967;28;20017;-74
2022/06/06 09:09:36;;;;;;;;;;;;;;;25.69;32.89;99685.88;5016409;28;20016;-74
2022/06/06 09:12:24;;;;;;;;;;;;;;;25.50;32.40;99682.03;5004371;28;19929;-74
2022/06/06 09:15:19;;;;;;;;;;;;;;;25.40;31.99;99686.28;5039459;28;20424;-80
2022/06/06 09:18:03;;;;;;;;;;;;;;;26.13;30.88;99684.34;5026238;28;19929;-80
2022/06/06 09:20:41;;;;;;;;;;;;;;;26.32;29.90;99677.78;5005814;28;20107;-79
2022/06/06 09:23:30;;;;;;;;;;;;;;;26.60;28.95;99688.44;5021832;28;20434;-79
2022/06/06 09:26:02;;;;;;;;;;;;;;;27.13;28.04;99680.03;5037003;28;19935;-79
2022/06/06 09:28:51;;;;;;;;;;;;;;;27.65;27.60;99679.16;5042427;28;20433;-79
2022/06/06 09:31:35;;;;;;;;;;;;;;;27.61;27.45;99684.75;5043973;28;19936;-79
2022/06/06 09:34:15;;;;;;;;;;;;;;;26.88;28.31;99689.88;5044892;28;20069;-79
2022/06/06 09:36:47;;;;;;;;;;;;;;;25.39;30.23;99681.06;4988531;28;20353;-79
2022/06/06 09:39:27;;;;;;;;;;;;;;;24.20;32.57;99697.50;5029589;28;19945;-79
2022/06/06 09:41:59;;;;;;;;;;;;;;;24.06;32.78;99692.47;5028996;28;19929;-79
2022/06/06 09:44:43;;;;;;;;;;;;;;;24.94;31.58;99692.78;5030917;28;19929;-79
2022/06/06 09:47:36;;;;;;;;;;;;;;;26.80;28.81;99701.41;5026885;28;19929;-79
2022/06/06 09:50:22;;;;;;;;;;;;;;;28.30;26.66;99705.44;4986826;28;20439;-79
2022/06/06 09:53:08;;;;;;;;;;;;;;;29.10;25.49;99699.84;5045697;28;19952;-79
2022/06/06 09:59:03;;;;;;;;;;;;;;;27.52;27.02;99687.06;5027326;28;20531;-79
2022/06/06 10:01:46;;;;;;;;;;;;;;;28.31;26.47;99692.19;5013176;28;20000;-80
2022/06/06 10:04:35;;;;;;;;;;;;;;;28.76;25.60;99688.22;4993490;28;20511;-79
2022/06/06 10:07:18;;;;;;;;;;;;;;;26.82;27.57;99685.00;5009272;28;19986;-79
2022/06/06 10:10:06;;;;;;;;;;;;;;;25.30;30.17;99686.94;5035977;28;20392;-79
2022/06/06 10:12:46;;;;;;;;;;;;;;;25.58;30.28;99691.34;5031194;28;19929;-80
2022/06/06 10:15:20;;;;;;;;;;;;;;;27.02;27.55;99686.41;5036844;28;19935;-78
2022/06/06 10:17:59;;;;;;;;;;;;;;;27.32;27.04;99681.75;5038942;28;19935;-80
2022/06/06 10:20:31;;;;;;;;;;;;;;;27.18;27.04;99688.88;5032694;28;19929;-79
2022/06/06 10:23:09;;;;;;;;;;;;;;;27.39;26.54;99692.22;5052725;28;19990;-79
2022/06/06 10:25:58;;;;;;;;;;;;;;;28.65;25.57;99674.16;5037825;28;19936;-79
2022/06/06 10:28:44;;;;;;;;;;;;;;;27.93;26.42;99672.81;5024559;28;20354;-75
2022/06/06 10:31:20;;;;;;;;;;;;;;;27.27;27.10;99673.72;5022875;28;19939;-73
2022/06/06 10:34:00;;;;;;;;;;;;;;;28.77;25.65;99670.91;5033599;28;19936;-74
2022/06/06 10:36:40;;;;;;;;;;;;;;;30.33;23.63;99673.22;5032143;28;19935;-73
2022/06/06 10:39:13;;;;;;;;;;;;;;;30.69;22.88;99672.16;5048539;28;19941;-74
2022/06/06 10:41:53;;;;;;;;;;;;;;;31.46;22.19;99669.38;5038218;28;19979;-74
2022/06/06 10:44:38;;;;;;;;;;;;;;;32.24;21.84;99663.91;5048758;28;19936;-73
2022/06/06 10:47:13;;;;;;;;;;;;;;;33.23;20.60;99654.56;5034456;28;19960;-74
2022/06/06 10:49:42;;;;;;;;;;;;;;;32.86;20.58;99662.06;5048749;28;19954;-73
2022/06/06 10:52:25;;;;;;;;;;;;;;;30.00;23.15;99661.31;5054276;28;19936;-74
2022/06/06 10:55:06;;;;;;;;;;;;;;;26.96;26.76;99665.50;5036356;28;19936;-74
2022/06/06 10:57:52;;;;;;;;;;;;;;;25.14;29.22;99668.34;5030903;28;20031;-73
2022/06/06 11:00:22;;;;;;;;;;;;;;;23.99;31.01;99656.81;5027893;28;19959;-74
2022/06/06 11:03:01;;;;;;;;;;;;;;;23.26;32.17;99665.69;5039365;28;19929;-73
2022/06/06 11:05:51;;;;;;;;;;;;;;;23.11;32.91;99663.72;5039148;28;19928;-73
2022/06/06 11:08:39;;;;;;;;;;;;;;;25.60;29.71;99666.56;5061305;28;19928;-73
2022/06/06 11:11:29;;;;;;;;;;;;;;;28.09;26.45;99664.00;5023217;28;20339;-74
2022/06/06 11:13:59;;;;;;;;;;;;;;;28.84;25.61;99659.69;5027219;28;19929;-77
2022/06/06 11:16:47;;;;;;;;;;;;;;;28.24;26.49;99664.06;5036136;28;19932;-78
2022/06/06 11:19:32;;;;;;;;;;;;;;;26.18;28.50;99670.03;5034425;28;19928;-78
2022/06/06 11:22:22;;;;;;;;;;;;;;;24.77;30.26;99655.78;5032352;28;19932;-74
2022/06/06 11:24:55;;;;;;;;;;;;;;;23.99;31.56;99670.78;5029297;28;19983;-73
2022/06/06 11:27:33;;;;;;;;;;;;;;;23.58;32.36;99659.19;5047378;28;19936;-74
2022/06/06 11:30:06;;;;;;;;;;;;;;;23.32;32.47;99658.66;5048459;28;19932;-75
2022/06/06 11:32:50;;;;;;;;;;;;;;;23.03;34.04;99657.19;5049164;28;20383;-73
2022/06/06 11:35:27;;;;;;;;;;;;;;;22.85;34.51;99645.63;5046862;28;19997;-78
2022/06/06 11:38:11;;;;;;;;;;;;;;;23.32;33.93;99641.91;5051627;28;20402;-78
2022/06/06 11:41:00;;;;;;;;;;;;;;;23.65;33.59;99640.59;5069945;28;20402;-78
2022/06/06 11:43:42;;;;;;;;;;;;;;;23.69;33.16;99640.69;5068125;28;19928;-77
2022/06/06 11:46:27;;;;;;;;;;;;;;;23.61;33.49;99642.53;5042264;28;20311;-77
2022/06/06 11:49:07;;;;;;;;;;;;;;;23.60;33.34;99640.91;5058157;28;20430;-78
2022/06/06 11:51:46;;;;;;;;;;;;;;;24.61;32.11;99641.13;5064137;28;19959;-78
2022/06/06 11:54:36;;;;;;;;;;;;;;;25.79;30.66;99626.41;5038161;28;19956;-77
2022/06/06 11:57:16;;;;;;;;;;;;;;;27.16;28.10;99623.97;5042675;28;20026;-77
2022/06/06 12:00:12;;;;;;;;;;;;;;;29.25;25.07;99630.25;4999315;28;19939;-77
2022/06/06 12:02:54;;;;;;;;;;;;;;;30.78;23.05;99616.03;5000784;28;19935;-78
2022/06/06 12:05:30;;;;;;;;;;;;;;;31.60;22.13;99617.56;5060487;28;19932;-79
2022/06/06 12:08:19;;;;;;;;;;;;;;;32.16;21.69;99619.19;5069710;28;20303;-79
2022/06/06 12:10:50;;;;;;;;;;;;;;;32.72;19.86;99615.84;5044980;28;19928;-79
2022/06/06 12:13:36;;;;;;;;;;;;;;;32.61;19.76;99621.69;5027837;28;19929;-79
2022/06/06 12:16:14;;;;;;;;;;;;;;;32.72;18.14;99617.88;5065480;28;20413;-78
2022/06/06 12:18:47;;;;;;;;;;;;;;;32.48;18.62;99601.72;5045335;28;19986;-79
2022/06/06 12:21:36;;;;;;;;;;;;;;;32.92;18.29;99604.56;5067514;28;20530;-80
2022/06/06 12:24:17;;;;;;;;;;;;;;;33.90;18.01;99610.25;5024879;28;19929;-73
2022/06/06 12:26:55;;;;;;;;;;;;;;;34.09;17.36;99608.59;5058925;28;19928;-73
2022/06/06 12:29:38;;;;;;;;;;;;;;;34.43;16.43;99598.06;5061993;28;20732;-79
2022/06/06 12:32:16;;;;;;;;;;;;;;;34.18;16.60;99599.47;5048468;28;19928;-79
2022/06/06 12:34:47;;;;;;;;;;;;;;;34.39;16.43;99595.31;5072347;28;19954;-79
2022/06/06 12:37:14;;;;;;;;;;;;;;;34.31;16.92;99605.25;5035803;28;20027;-79
2022/06/06 12:39:58;;;;;;;;;;;;;;;33.45;16.96;99611.66;5069007;28;20082;-78
2022/06/06 12:42:30;;;;;;;;;;;;;;;32.45;17.33;99611.06;5072861;28;19928;-79
2022/06/06 12:45:15;;;;;;;;;;;;;;;32.51;17.68;99605.72;5062833;28;19947;-79
2022/06/06 12:47:49;;;;;;;;;;;;;;;32.35;17.46;99604.38;5049006;28;20015;-79
2022/06/06 12:50:20;;;;;;;;;;;;;;;33.01;17.37;99603.22;5065673;28;19928;-79
2022/06/06 12:52:58;;;;;;;;;;;;;;;34.10;16.39;99586.72;5065494;28;20015;-74
2022/06/06 12:55:33;;;;;;;;;;;;;;;34.12;15.63;99587.91;5028787;28;20109;-79
2022/06/06 12:58:07;;;;;;;;;;;;;;;34.10;14.96;99606.56;5070217;28;19935;-79
2022/06/06 13:03:24;;;;;;;;;;;;;;;32.72;16.08;99598.88;5028791;28;19936;-74
2022/06/06 13:05:55;;;;;;;;;;;;;;;30.05;17.75;99596.09;5063462;28;19939;-73
2022/06/06 13:08:28;;;;;;;;;;;;;;;29.37;18.80;99586.78;5062922;28;20426;-74
2022/06/06 13:11:02;;;;;;;;;;;;;;;30.03;18.78;99589.25;5065840;28;19935;-74
2022/06/06 13:13:47;;;;;;;;;;;;;;;28.57;20.33;99597.44;5051551;28;20023;-73
2022/06/06 13:16:28;;;;;;;;;;;;;;;27.65;21.87;99600.53;5065035;28;20422;-73
2022/06/06 13:19:05;;;;;;;;;;;;;;;29.20;20.44;99602.53;5064309;28;19928;-73
2022/06/06 13:21:53;;;;;;;;;;;;;;;28.71;20.93;99594.56;5047225;28;19936;-74
2022/06/06 13:24:30;;;;;;;;;;;;;;;27.13;22.57;99591.09;5066920;28;19951;-73
2022/06/06 13:27:14;;;;;;;;;;;;;;;25.98;24.27;99600.19;5050823;28;20068;-73
2022/06/06 13:29:40;;;;;;;;;;;;;;;25.21;25.45;99597.69;5049890;28;19928;-73
2022/06/06 13:32:07;;;;;;;;;;;;;;;24.88;25.88;99594.44;5059832;28;19951;-73
2022/06/06 13:34:39;;;;;;;;;;;;;;;24.76;25.93;99589.91;5035114;28;19929;-73
2022/06/06 13:37:12;;;;;;;;;;;;;;;25.67;25.09;99595.88;5068152;28;19928;-73
2022/06/06 13:39:52;;;;;;;;;;;;;;;26.18;24.83;99592.41;5048767;28;19950;-73
2022/06/06 13:42:30;;;;;;;;;;;;;;;26.65;24.35;99605.19;5063808;28;19928;-73
2022/06/06 13:45:03;;;;;;;;;;;;;;;26.11;25.32;99608.31;5024000;28;19951;-73